createdAt,value
2022-08-03T00:00:15.650Z,33.47
2022-08-03T00:01:15.657Z,32.50
2022-08-03T00:02:15.889Z,31.53
2022-08-03T00:03:15.702Z,32.82
2022-08-03T00:04:15.665Z,30.57
2022-08-03T00:05:15.600Z,31.53
2022-08-03T00:06:15.580Z,31.53
2022-08-03T00:07:15.595Z,30.57
2022-08-03T00:08:15.573Z,31.86
2022-08-03T00:09:15.580Z,30.89
2022-08-03T00:10:15.527Z,30.89
2022-08-03T00:11:15.533Z,31.53
2022-08-03T00:12:15.765Z,31.86
2022-08-03T00:13:15.496Z,32.82
2022-08-03T00:14:15.501Z,31.53
2022-08-03T00:15:16.854Z,32.50
2022-08-03T00:16:15.459Z,30.24
2022-08-03T00:17:15.469Z,32.18
2022-08-03T00:18:15.482Z,33.47
2022-08-03T00:19:15.439Z,31.86
2022-08-03T00:20:15.423Z,31.86
2022-08-03T00:21:15.731Z,31.86
2022-08-03T00:22:15.614Z,31.21
2022-08-03T00:23:15.367Z,32.50
2022-08-03T00:24:15.356Z,31.53
2022-08-03T00:25:15.374Z,31.21
2022-08-03T00:26:15.330Z,30.89
2022-08-03T00:27:16.723Z,30.57
2022-08-03T00:28:15.304Z,31.86
2022-08-03T00:29:15.301Z,32.50
2022-08-03T00:30:15.271Z,32.50
2022-08-03T00:31:15.280Z,30.89
2022-08-03T00:32:15.450Z,33.79
2022-08-03T00:33:15.317Z,32.82
2022-08-03T00:34:15.244Z,30.89
2022-08-03T00:35:36.621Z,32.50
2022-08-03T00:36:15.209Z,32.50
2022-08-03T00:37:15.194Z,30.57
2022-08-03T00:38:15.180Z,32.18
2022-08-03T00:39:15.198Z,32.18
2022-08-03T00:40:15.148Z,31.53
2022-08-03T00:41:15.750Z,32.82
2022-08-03T00:42:15.465Z,33.47
2022-08-03T00:43:15.189Z,32.50
2022-08-03T00:44:15.081Z,31.21
2022-08-03T00:45:15.155Z,31.53
2022-08-03T00:46:20.557Z,32.18
2022-08-03T00:47:15.086Z,31.21
2022-08-03T00:48:23.311Z,32.82
2022-08-03T00:49:15.090Z,32.18
2022-08-03T00:50:15.024Z,31.21
2022-08-03T00:51:15.012Z,32.50
2022-08-03T00:52:15.048Z,31.53
2022-08-03T00:53:15.020Z,32.18
2022-08-03T00:54:15.011Z,32.18
2022-08-03T00:55:14.952Z,32.18
2022-08-03T00:56:14.928Z,31.86
2022-08-03T00:57:14.936Z,32.82
2022-08-03T00:58:14.900Z,32.50
2022-08-03T00:59:14.901Z,31.21
2022-08-03T01:00:14.922Z,32.18
2022-08-03T01:01:15.006Z,32.18
2022-08-03T01:02:15.014Z,31.53
2022-08-03T01:03:14.875Z,30.89
2022-08-03T01:04:14.855Z,32.18
2022-08-03T01:05:14.830Z,31.21
2022-08-03T01:06:14.828Z,32.18
2022-08-03T01:07:14.794Z,31.21
2022-08-03T01:08:14.800Z,33.14
2022-08-03T01:09:14.797Z,33.14
2022-08-03T01:10:14.778Z,30.89
2022-08-03T01:11:14.737Z,32.18
2022-08-03T01:12:14.972Z,31.53
2022-08-03T01:14:01.764Z,32.82
2022-08-03T01:14:23.016Z,35.72
2022-08-03T01:15:14.707Z,36.04
2022-08-03T01:16:14.693Z,33.14
2022-08-03T01:17:14.673Z,32.50
2022-08-03T01:18:14.655Z,32.82
2022-08-03T01:19:14.643Z,32.50
2022-08-03T01:20:14.642Z,32.50
2022-08-03T01:21:14.616Z,33.47
2022-08-03T01:22:14.861Z,31.53
2022-08-03T01:23:14.621Z,32.82
2022-08-03T01:24:14.600Z,31.53
2022-08-03T01:25:14.598Z,30.89
2022-08-03T01:26:14.592Z,31.86
2022-08-03T01:27:14.547Z,31.86
2022-08-03T01:28:14.591Z,31.21
2022-08-03T01:29:14.498Z,34.11
2022-08-03T01:30:14.523Z,32.82
2022-08-03T01:31:14.515Z,31.86
2022-08-03T01:32:59.599Z,33.14
2022-08-03T01:33:14.526Z,33.47
2022-08-03T01:34:14.731Z,33.79
2022-08-03T01:35:14.474Z,33.14
2022-08-03T01:36:14.448Z,31.21
2022-08-03T01:37:14.428Z,31.53
2022-08-03T01:38:14.394Z,31.53
2022-08-03T01:39:14.378Z,31.53
2022-08-03T01:40:14.388Z,32.50
2022-08-03T01:41:14.358Z,33.47
2022-08-03T01:42:14.547Z,32.82
2022-08-03T01:43:14.478Z,32.82
2022-08-03T01:44:29.068Z,33.79
2022-08-03T01:45:14.299Z,33.79
2022-08-03T01:46:14.299Z,32.82
2022-08-03T01:47:14.264Z,32.18
2022-08-03T01:48:14.289Z,33.47
2022-08-03T01:49:14.301Z,33.14
2022-08-03T01:50:14.290Z,32.50
2022-08-03T01:51:14.243Z,33.14
2022-08-03T01:52:14.345Z,32.50
2022-08-03T01:53:14.227Z,31.86
2022-08-03T01:54:14.205Z,35.08
2022-08-03T01:55:14.164Z,32.82
2022-08-03T01:56:14.165Z,32.82
2022-08-03T01:57:14.143Z,32.18
2022-08-03T01:58:14.140Z,32.82
2022-08-03T01:59:14.131Z,33.14
2022-08-03T02:00:14.156Z,32.18
2022-08-03T02:01:14.166Z,33.79
2022-08-03T02:02:31.722Z,32.50
2022-08-03T02:03:14.104Z,32.82
2022-08-03T02:04:14.082Z,33.47
2022-08-03T02:05:14.025Z,34.11
2022-08-03T02:06:59.709Z,32.82
2022-08-03T02:07:14.023Z,33.14
2022-08-03T02:08:14.014Z,33.47
2022-08-03T02:09:14.042Z,31.86
2022-08-03T02:10:13.991Z,33.79
2022-08-03T02:11:13.962Z,32.18
2022-08-03T02:12:14.315Z,32.82
2022-08-03T02:13:13.957Z,32.50
2022-08-03T02:14:13.933Z,33.14
2022-08-03T02:15:13.898Z,33.47
2022-08-03T02:16:13.902Z,41.20
2022-08-03T02:17:13.914Z,32.82
2022-08-03T02:18:13.881Z,33.14
2022-08-03T02:19:13.851Z,32.18
2022-08-03T02:20:13.852Z,33.14
2022-08-03T02:21:55.964Z,33.47
2022-08-03T02:22:13.946Z,33.47
2022-08-03T02:23:13.809Z,33.79
2022-08-03T02:24:13.778Z,33.79
2022-08-03T02:25:13.775Z,33.47
2022-08-03T02:26:13.796Z,32.82
2022-08-03T02:27:13.776Z,32.50
2022-08-03T02:28:13.734Z,32.82
2022-08-03T02:29:13.718Z,34.76
2022-08-03T02:30:13.728Z,33.14
2022-08-03T02:31:13.708Z,32.18
2022-08-03T02:32:13.859Z,33.14
2022-08-03T02:33:13.708Z,32.50
2022-08-03T02:34:13.664Z,31.86
2022-08-03T02:35:13.632Z,33.47
2022-08-03T02:36:13.614Z,33.79
2022-08-03T02:37:13.668Z,31.86
2022-08-03T02:38:13.626Z,32.82
2022-08-03T02:39:13.600Z,33.47
2022-08-03T02:40:13.585Z,33.79
2022-08-03T02:41:13.663Z,33.47
2022-08-03T02:42:13.557Z,32.82
2022-08-03T02:43:13.514Z,36.37
2022-08-03T02:44:13.533Z,32.82
2022-08-03T02:45:13.522Z,34.43
2022-08-03T02:46:13.493Z,32.82
2022-08-03T02:47:13.475Z,33.47
2022-08-03T02:48:13.483Z,33.47
2022-08-03T02:49:40.762Z,33.14
2022-08-03T02:50:13.544Z,33.14
2022-08-03T02:51:13.482Z,32.50
2022-08-03T02:52:13.539Z,34.43
2022-08-03T02:53:13.393Z,33.79
2022-08-03T02:54:13.408Z,33.14
2022-08-03T02:55:13.397Z,33.79
2022-08-03T02:56:13.356Z,32.82
2022-08-03T02:57:13.323Z,33.79
2022-08-03T02:58:13.344Z,32.50
2022-08-03T02:59:13.289Z,33.47
2022-08-03T03:00:13.284Z,32.50
2022-08-03T03:01:13.354Z,35.08
2022-08-03T03:02:13.427Z,34.11
2022-08-03T03:03:13.266Z,34.76
2022-08-03T03:04:13.226Z,33.79
2022-08-03T03:05:54.926Z,34.76
2022-08-03T03:06:13.209Z,33.79
2022-08-03T03:07:13.188Z,33.47
2022-08-03T03:08:18.505Z,34.43
2022-08-03T03:09:13.181Z,33.47
2022-08-03T03:10:13.165Z,34.11
2022-08-03T03:11:13.142Z,33.79
2022-08-03T03:12:13.461Z,32.82
2022-08-03T03:13:13.118Z,34.11
2022-08-03T03:14:13.119Z,32.50
2022-08-03T03:15:13.127Z,33.47
2022-08-03T03:16:13.078Z,37.01
2022-08-03T03:17:13.061Z,33.47
2022-08-03T03:18:13.073Z,32.50
2022-08-03T03:19:13.033Z,33.47
2022-08-03T03:20:13.042Z,33.79
2022-08-03T03:21:13.057Z,33.14
2022-08-03T03:22:13.164Z,47.97
2022-08-03T03:23:13.030Z,33.79
2022-08-03T03:24:12.987Z,35.08
2022-08-03T03:25:12.972Z,33.14
2022-08-03T03:26:12.939Z,36.69
2022-08-03T03:27:16.734Z,34.11
2022-08-03T03:28:12.944Z,35.40
2022-08-03T03:29:12.912Z,37.33
2022-08-03T03:30:12.909Z,34.76
2022-08-03T03:31:12.876Z,36.04
2022-08-03T03:32:13.044Z,33.79
2022-08-03T03:33:12.847Z,37.01
2022-08-03T03:34:12.822Z,34.76
2022-08-03T03:35:12.819Z,37.33
2022-08-03T03:36:12.800Z,37.98
2022-08-03T03:37:12.802Z,35.72
2022-08-03T03:38:12.784Z,35.40
2022-08-03T03:39:16.015Z,35.72
2022-08-03T03:40:12.789Z,37.66
2022-08-03T03:41:12.739Z,35.72
2022-08-03T03:42:12.871Z,34.76
2022-08-03T03:43:12.760Z,34.76
2022-08-03T03:44:12.737Z,35.40
2022-08-03T03:45:12.667Z,36.69
2022-08-03T03:46:12.730Z,36.04
2022-08-03T03:47:12.683Z,36.69
2022-08-03T03:48:12.672Z,35.08
2022-08-03T03:49:12.709Z,39.27
2022-08-03T03:50:12.620Z,34.43
2022-08-03T03:51:12.634Z,33.79
2022-08-03T03:52:12.650Z,38.30
2022-08-03T03:53:12.616Z,35.40
2022-08-03T03:54:12.645Z,35.40
2022-08-03T03:55:12.574Z,34.43
2022-08-03T03:56:12.565Z,35.08
2022-08-03T03:57:13.095Z,33.47
2022-08-03T03:58:12.635Z,34.43
2022-08-03T03:59:12.509Z,34.43
2022-08-03T04:00:12.489Z,35.40
2022-08-03T04:01:12.566Z,33.79
2022-08-03T04:02:12.523Z,37.33
2022-08-03T04:03:12.455Z,35.40
2022-08-03T04:04:12.476Z,34.76
2022-08-03T04:05:12.397Z,38.62
2022-08-03T04:06:12.413Z,34.76
2022-08-03T04:07:12.376Z,37.33
2022-08-03T04:08:12.379Z,38.62
2022-08-03T04:09:12.404Z,37.33
2022-08-03T04:10:14.613Z,37.66
2022-08-03T04:11:12.333Z,36.37
2022-08-03T04:12:12.331Z,38.62
2022-08-03T04:13:12.283Z,51.84
2022-08-03T04:14:12.294Z,34.11
2022-08-03T04:15:12.285Z,34.11
2022-08-03T04:16:12.273Z,38.30
2022-08-03T04:17:12.248Z,36.37
2022-08-03T04:18:12.247Z,35.08
2022-08-03T04:19:12.229Z,35.72
2022-08-03T04:20:12.247Z,34.11
2022-08-03T04:21:12.203Z,34.43
2022-08-03T04:22:12.176Z,35.40
2022-08-03T04:23:13.721Z,37.66
2022-08-03T04:24:12.164Z,38.30
2022-08-03T04:25:12.173Z,35.40
2022-08-03T04:26:12.135Z,37.98
2022-08-03T04:27:12.109Z,39.91
2022-08-03T04:28:31.052Z,33.79
2022-08-03T04:29:12.075Z,63.44
2022-08-03T04:30:12.087Z,35.08
2022-08-03T04:31:12.058Z,38.95
2022-08-03T04:32:12.054Z,38.62
2022-08-03T04:33:12.058Z,39.27
2022-08-03T04:34:12.040Z,37.98
2022-08-03T04:35:12.030Z,36.69
2022-08-03T04:36:12.071Z,35.40
2022-08-03T04:37:12.017Z,38.30
2022-08-03T04:38:11.982Z,47.00
2022-08-03T04:39:11.954Z,35.72
2022-08-03T04:40:13.001Z,35.72
2022-08-03T04:41:11.955Z,35.08
2022-08-03T04:42:11.914Z,37.01
2022-08-03T04:43:11.899Z,36.37
2022-08-03T04:44:11.888Z,40.56
2022-08-03T04:45:11.880Z,37.01
2022-08-03T04:46:11.883Z,37.66
2022-08-03T04:47:11.826Z,38.62
2022-08-03T04:48:11.844Z,34.76
2022-08-03T04:49:11.871Z,34.43
2022-08-03T04:50:13.558Z,36.37
2022-08-03T04:51:11.778Z,36.04
2022-08-03T04:52:11.787Z,40.23
2022-08-03T04:53:11.773Z,36.69
2022-08-03T04:54:11.771Z,40.23
2022-08-03T04:55:11.720Z,34.43
2022-08-03T04:56:11.743Z,35.40
2022-08-03T04:57:11.725Z,35.40
2022-08-03T04:58:11.722Z,36.04
2022-08-03T04:59:11.672Z,36.37
2022-08-03T05:00:11.679Z,36.69
2022-08-03T05:01:11.679Z,41.52
2022-08-03T05:02:11.756Z,34.43
2022-08-03T05:03:23.720Z,42.49
2022-08-03T05:04:11.643Z,37.33
2022-08-03T05:05:11.610Z,36.04
2022-08-03T05:06:11.820Z,37.01
2022-08-03T05:07:12.615Z,34.76
2022-08-03T05:08:11.603Z,35.40
2022-08-03T05:09:11.570Z,34.43
2022-08-03T05:10:16.173Z,42.81
2022-08-03T05:11:11.537Z,35.40
2022-08-03T05:12:11.524Z,35.72
2022-08-03T05:13:11.498Z,36.69
2022-08-03T05:14:11.493Z,34.76
2022-08-03T05:15:11.484Z,36.04
2022-08-03T05:16:11.459Z,38.62
2022-08-03T05:17:11.469Z,35.72
2022-08-03T05:18:14.105Z,35.40
2022-08-03T05:19:11.445Z,36.37
2022-08-03T05:20:11.433Z,37.33
2022-08-03T05:21:11.405Z,37.66
2022-08-03T05:22:11.406Z,35.40
2022-08-03T05:23:11.380Z,35.40
2022-08-03T05:24:11.354Z,34.11
2022-08-03T05:25:17.740Z,33.79
2022-08-03T05:26:11.340Z,33.79
2022-08-03T05:27:11.312Z,35.72
2022-08-03T05:28:11.313Z,40.56
2022-08-03T05:29:11.316Z,43.46
2022-08-03T05:30:29.682Z,37.66
2022-08-03T05:31:11.299Z,32.50
2022-08-03T05:32:11.268Z,35.72
2022-08-03T05:33:11.234Z,43.13
2022-08-03T05:34:11.209Z,34.43
2022-08-03T05:36:02.728Z,33.14
2022-08-03T05:36:11.204Z,33.14
2022-08-03T05:37:11.194Z,33.14
2022-08-03T05:38:11.155Z,32.50
2022-08-03T05:39:11.165Z,38.62
2022-08-03T05:40:11.139Z,35.72
2022-08-03T05:41:21.124Z,36.04
2022-08-03T05:42:11.115Z,37.66
2022-08-03T05:43:11.144Z,34.11
2022-08-03T05:44:11.085Z,32.82
2022-08-03T05:45:11.092Z,34.11
2022-08-03T05:46:12.120Z,41.20
2022-08-03T05:47:11.082Z,36.37
2022-08-03T05:48:11.049Z,31.21
2022-08-03T05:49:11.055Z,32.50
2022-08-03T05:50:11.004Z,34.43
2022-08-03T05:51:11.296Z,37.66
2022-08-03T05:52:14.056Z,32.18
2022-08-03T05:53:11.012Z,37.33
2022-08-03T05:54:10.954Z,34.11
2022-08-03T05:55:10.965Z,35.40
2022-08-03T05:56:14.147Z,43.46
2022-08-03T05:57:10.945Z,33.14
2022-08-03T05:58:10.936Z,31.86
2022-08-03T05:59:35.830Z,33.79
2022-08-03T06:00:10.902Z,31.86
2022-08-03T06:01:10.914Z,32.50
2022-08-03T06:02:10.862Z,35.40
2022-08-03T06:03:10.834Z,32.50
2022-08-03T06:04:10.834Z,36.04
2022-08-03T06:05:10.836Z,34.11
2022-08-03T06:06:10.794Z,33.14
2022-08-03T06:07:10.806Z,40.88
2022-08-03T06:08:10.769Z,32.50
2022-08-03T06:09:10.785Z,46.04
2022-08-03T06:10:35.020Z,35.40
2022-08-03T06:11:10.738Z,33.47
2022-08-03T06:12:14.023Z,36.37
2022-08-03T06:13:10.703Z,33.47
2022-08-03T06:14:10.714Z,33.14
2022-08-03T06:15:11.598Z,35.40
2022-08-03T06:16:10.680Z,33.47
2022-08-03T06:17:10.675Z,31.86
2022-08-03T06:18:10.650Z,35.72
2022-08-03T06:19:10.624Z,34.11
2022-08-03T06:20:10.643Z,35.40
2022-08-03T06:21:15.664Z,32.82
2022-08-03T06:22:10.589Z,35.40
2022-08-03T06:23:16.211Z,39.59
2022-08-03T06:24:10.589Z,33.47
2022-08-03T06:25:12.927Z,33.14
2022-08-03T06:26:12.105Z,35.08
2022-08-03T06:27:11.034Z,35.08
2022-08-03T06:28:15.068Z,37.98
2022-08-03T06:29:10.518Z,34.76
2022-08-03T06:30:10.527Z,42.17
2022-08-03T06:31:10.480Z,35.40
2022-08-03T06:32:10.543Z,33.14
2022-08-03T06:33:10.458Z,34.11
2022-08-03T06:34:33.441Z,35.40
2022-08-03T06:35:10.450Z,39.59
2022-08-03T06:36:10.418Z,31.53
2022-08-03T06:37:10.398Z,35.40
2022-08-03T06:38:10.384Z,34.76
2022-08-03T06:39:10.406Z,37.01
2022-08-03T06:40:10.378Z,33.47
2022-08-03T06:41:10.360Z,33.47
2022-08-03T06:42:10.425Z,33.14
2022-08-03T06:43:12.632Z,34.43
2022-08-03T06:44:10.455Z,36.69
2022-08-03T06:45:10.319Z,33.47
2022-08-03T06:46:10.289Z,33.79
2022-08-03T06:47:10.362Z,38.30
2022-08-03T06:48:10.250Z,32.50
2022-08-03T06:49:10.298Z,32.82
2022-08-03T06:50:16.278Z,31.53
2022-08-03T06:51:10.235Z,33.79
2022-08-03T06:52:10.218Z,37.66
2022-08-03T06:53:10.198Z,33.47
2022-08-03T06:54:10.203Z,34.11
2022-08-03T06:55:10.159Z,34.76
2022-08-03T06:56:10.195Z,32.82
2022-08-03T06:57:10.134Z,34.11
2022-08-03T06:58:10.113Z,31.86
2022-08-03T06:59:10.114Z,32.18
2022-08-03T07:00:12.585Z,33.47
2022-08-03T07:01:10.177Z,34.43
2022-08-03T07:02:10.122Z,37.66
2022-08-03T07:03:10.063Z,40.23
2022-08-03T07:04:10.042Z,40.56
2022-08-03T07:05:10.048Z,42.17
2022-08-03T07:06:10.027Z,33.47
2022-08-03T07:07:09.998Z,33.47
2022-08-03T07:08:10.002Z,31.86
2022-08-03T07:09:10.018Z,32.82
2022-08-03T07:10:09.968Z,33.47
2022-08-03T07:11:09.973Z,36.69
2022-08-03T07:12:10.213Z,32.50
2022-08-03T07:13:09.942Z,38.95
2022-08-03T07:14:09.936Z,34.11
2022-08-03T07:15:20.527Z,33.14
2022-08-03T07:16:09.878Z,36.04
2022-08-03T07:17:11.916Z,36.37
2022-08-03T07:18:09.863Z,38.95
2022-08-03T07:19:09.867Z,37.66
2022-08-03T07:20:09.845Z,36.04
2022-08-03T07:21:09.838Z,32.18
2022-08-03T07:22:09.868Z,34.11
2022-08-03T07:23:09.873Z,36.04
2022-08-03T07:24:09.804Z,33.47
2022-08-03T07:25:09.802Z,33.14
2022-08-03T07:26:09.770Z,39.59
2022-08-03T07:27:09.743Z,35.72
2022-08-03T07:28:09.780Z,32.50
2022-08-03T07:29:14.717Z,33.79
2022-08-03T07:30:09.757Z,33.14
2022-08-03T07:31:09.793Z,34.11
2022-08-03T07:32:09.845Z,35.72
2022-08-03T07:33:09.772Z,34.43
2022-08-03T07:34:09.837Z,34.76
2022-08-03T07:35:24.468Z,34.43
2022-08-03T07:36:09.745Z,34.11
2022-08-03T07:37:09.749Z,38.62
2022-08-03T07:38:09.654Z,33.79
2022-08-03T07:39:15.402Z,32.50
2022-08-03T07:40:09.727Z,33.47
2022-08-03T07:41:09.677Z,40.23
2022-08-03T07:42:09.688Z,33.14
2022-08-03T07:43:09.699Z,33.79
2022-08-03T07:44:09.590Z,38.62
2022-08-03T07:45:09.653Z,33.79
2022-08-03T07:46:09.612Z,34.43
2022-08-03T07:47:09.624Z,50.87
2022-08-03T07:48:12.408Z,35.08
2022-08-03T07:49:09.604Z,37.66
2022-08-03T07:50:09.590Z,40.56
2022-08-03T07:51:09.543Z,34.43
2022-08-03T07:52:09.555Z,35.72
2022-08-03T07:53:10.177Z,34.11
2022-08-03T07:54:09.517Z,34.76
2022-08-03T07:55:09.464Z,37.01
2022-08-03T07:56:11.377Z,34.43
2022-08-03T07:57:09.481Z,36.69
2022-08-03T07:58:09.497Z,35.40
2022-08-03T07:59:09.403Z,36.37
2022-08-03T08:00:09.398Z,36.04
2022-08-03T08:01:09.441Z,34.43
2022-08-03T08:02:09.309Z,35.72
2022-08-03T08:03:09.376Z,49.26
2022-08-03T08:04:09.494Z,34.43
2022-08-03T08:05:09.394Z,35.08
2022-08-03T08:06:09.288Z,36.04
2022-08-03T08:07:09.354Z,36.37
2022-08-03T08:08:09.313Z,37.33
2022-08-03T08:09:09.364Z,40.88
2022-08-03T08:10:09.332Z,35.72
2022-08-03T08:11:09.335Z,36.69
2022-08-03T08:12:15.353Z,38.30
2022-08-03T08:13:09.297Z,38.30
2022-08-03T08:14:09.256Z,35.40
2022-08-03T08:15:09.138Z,36.69
2022-08-03T08:16:09.233Z,40.23
2022-08-03T08:17:09.242Z,40.56
2022-08-03T08:18:09.197Z,38.95
2022-08-03T08:19:09.085Z,39.59
2022-08-03T08:20:09.073Z,37.01
2022-08-03T08:21:09.068Z,37.01
2022-08-03T08:22:09.043Z,37.98
2022-08-03T08:23:19.926Z,34.76
2022-08-03T08:24:13.350Z,39.59
2022-08-03T08:25:09.013Z,38.30
2022-08-03T08:26:08.968Z,36.37
2022-08-03T08:27:09.008Z,37.01
2022-08-03T08:28:30.758Z,35.40
2022-08-03T08:29:09.067Z,37.01
2022-08-03T08:30:12.215Z,37.66
2022-08-03T08:31:09.025Z,38.30
2022-08-03T08:32:08.991Z,40.56
2022-08-03T08:33:22.191Z,39.27
2022-08-03T08:34:08.995Z,39.91
2022-08-03T08:35:08.973Z,38.95
2022-08-03T08:36:13.317Z,39.91
2022-08-03T08:37:08.888Z,35.72
2022-08-03T08:38:08.852Z,42.49
2022-08-03T08:39:08.828Z,50.22
2022-08-03T08:40:08.832Z,41.52
2022-08-03T08:41:08.827Z,44.42
2022-08-03T08:42:08.771Z,46.36
2022-08-03T08:43:08.910Z,45.71
2022-08-03T08:44:08.760Z,45.39
2022-08-03T08:45:08.784Z,46.04
2022-08-03T08:46:08.745Z,44.10
2022-08-03T08:47:08.743Z,44.75
2022-08-03T08:48:08.725Z,46.68
2022-08-03T08:49:08.764Z,41.52
2022-08-03T08:50:27.400Z,42.17
2022-08-03T08:51:08.825Z,42.81
2022-08-03T08:52:24.826Z,45.07
2022-08-03T08:53:09.751Z,46.36
2022-08-03T08:54:08.625Z,43.13
2022-08-03T08:55:08.623Z,40.56
2022-08-03T08:56:08.634Z,49.58
2022-08-03T08:57:21.320Z,45.71
2022-08-03T08:58:08.700Z,46.68
2022-08-03T08:59:08.669Z,46.68
2022-08-03T09:00:08.674Z,45.71
2022-08-03T09:01:08.704Z,52.80
2022-08-03T09:02:08.641Z,45.71
2022-08-03T09:03:08.647Z,46.36
2022-08-03T09:04:08.545Z,50.55
2022-08-03T09:05:08.524Z,46.04
2022-08-03T09:06:08.642Z,48.61
2022-08-03T09:07:20.170Z,53.12
2022-08-03T09:08:08.576Z,46.36
2022-08-03T09:09:08.586Z,48.29
2022-08-03T09:10:12.755Z,44.42
2022-08-03T09:11:08.549Z,45.71
2022-08-03T09:12:35.273Z,48.29
2022-08-03T09:13:08.523Z,45.71
2022-08-03T09:14:08.499Z,46.36
2022-08-03T09:15:16.915Z,46.68
2022-08-03T09:16:08.492Z,46.04
2022-08-03T09:17:08.458Z,46.68
2022-08-03T09:18:08.469Z,43.46
2022-08-03T09:19:08.495Z,46.36
2022-08-03T09:20:08.510Z,44.10
2022-08-03T09:21:29.758Z,45.07
2022-08-03T09:22:08.536Z,45.07
2022-08-03T09:23:26.306Z,53.12
2022-08-03T09:24:16.406Z,45.39
2022-08-03T09:25:23.848Z,46.36
2022-08-03T09:26:09.148Z,47.97
2022-08-03T09:27:08.365Z,45.39
2022-08-03T09:28:08.439Z,51.19
2022-08-03T09:29:13.825Z,56.99
2022-08-03T09:30:33.767Z,43.78
2022-08-03T09:31:08.318Z,51.84
2022-08-03T09:32:08.234Z,46.36
2022-08-03T09:33:08.555Z,46.36
2022-08-03T09:34:08.225Z,47.97
2022-08-03T09:35:09.560Z,41.85
2022-08-03T09:36:08.219Z,52.48
2022-08-03T09:37:08.208Z,48.61
2022-08-03T09:38:12.669Z,43.46
2022-08-03T09:39:08.162Z,43.13
2022-08-03T09:40:08.370Z,49.58
2022-08-03T09:41:08.156Z,45.07
2022-08-03T09:42:08.116Z,48.29
2022-08-03T09:43:08.135Z,44.10
2022-08-03T09:44:08.116Z,41.85
2022-08-03T09:45:08.085Z,45.39
2022-08-03T09:46:08.055Z,44.10
2022-08-03T09:47:08.054Z,44.10
2022-08-03T09:48:08.049Z,42.17
2022-08-03T09:49:10.663Z,41.85
2022-08-03T09:50:08.013Z,41.52
2022-08-03T09:51:14.371Z,42.17
2022-08-03T09:52:39.439Z,45.39
2022-08-03T09:53:08.063Z,46.36
2022-08-03T09:54:16.286Z,45.71
2022-08-03T09:55:07.957Z,44.10
2022-08-03T09:56:40.044Z,41.85
2022-08-03T09:57:07.952Z,47.00
2022-08-03T09:58:07.957Z,43.13
2022-08-03T09:59:07.941Z,46.04
2022-08-03T10:00:08.512Z,45.39
2022-08-03T10:01:07.973Z,45.39
2022-08-03T10:02:07.913Z,45.71
2022-08-03T10:03:07.889Z,48.61
2022-08-03T10:04:07.910Z,47.65
2022-08-03T10:05:07.872Z,41.20
2022-08-03T10:06:07.873Z,45.39
2022-08-03T10:07:07.886Z,42.81
2022-08-03T10:08:07.859Z,42.81
2022-08-03T10:09:07.865Z,47.97
2022-08-03T10:10:31.261Z,41.52
2022-08-03T10:11:07.821Z,45.39
2022-08-03T10:12:07.907Z,44.75
2022-08-03T10:13:07.807Z,44.42
2022-08-03T10:14:07.840Z,45.39
2022-08-03T10:15:07.782Z,45.39
2022-08-03T10:16:28.858Z,41.52
2022-08-03T10:17:07.801Z,41.52
2022-08-03T10:18:07.795Z,46.04
2022-08-03T10:19:07.731Z,41.85
2022-08-03T10:20:07.742Z,45.07
2022-08-03T10:21:07.785Z,43.46
2022-08-03T10:22:07.698Z,43.13
2022-08-03T10:23:07.686Z,39.27
2022-08-03T10:24:07.717Z,38.95
2022-08-03T10:25:07.710Z,38.95
2022-08-03T10:26:07.672Z,39.59
2022-08-03T10:27:07.706Z,45.71
2022-08-03T10:28:07.673Z,43.13
2022-08-03T10:29:07.660Z,46.36
2022-08-03T10:30:07.654Z,40.88
2022-08-03T10:31:07.647Z,44.10
2022-08-03T10:32:07.612Z,40.88
2022-08-03T10:33:12.331Z,39.91
2022-08-03T10:34:07.629Z,43.78
2022-08-03T10:35:19.942Z,38.30
2022-08-03T10:36:07.600Z,38.95
2022-08-03T10:37:07.641Z,42.49
2022-08-03T10:38:07.638Z,41.52
2022-08-03T10:39:16.358Z,55.38
2022-08-03T10:40:07.546Z,41.85
2022-08-03T10:41:07.648Z,42.17
2022-08-03T10:42:14.716Z,41.20
2022-08-03T10:43:07.532Z,44.42
2022-08-03T10:44:07.537Z,38.95
2022-08-03T10:45:07.531Z,38.95
2022-08-03T10:46:07.486Z,41.85
2022-08-03T10:47:07.515Z,37.01
2022-08-03T10:48:07.495Z,37.66
2022-08-03T10:49:07.497Z,42.81
2022-08-03T10:50:07.466Z,36.69
2022-08-03T10:51:07.424Z,37.33
2022-08-03T10:52:13.813Z,38.62
2022-08-03T10:53:07.393Z,37.33
2022-08-03T10:54:07.411Z,40.23
2022-08-03T10:55:09.931Z,36.69
2022-08-03T10:56:07.459Z,38.95
2022-08-03T10:57:14.503Z,39.27
2022-08-03T10:58:11.110Z,38.95
2022-08-03T10:59:08.939Z,33.47
2022-08-03T11:00:07.502Z,38.30
2022-08-03T11:01:07.447Z,35.40
2022-08-03T11:02:07.330Z,39.59
2022-08-03T11:03:07.334Z,42.17
2022-08-03T11:04:11.049Z,35.40
2022-08-03T11:05:07.282Z,41.52
2022-08-03T11:06:07.288Z,37.66
2022-08-03T11:07:07.268Z,39.27
2022-08-03T11:08:07.259Z,36.69
2022-08-03T11:09:07.260Z,40.56
2022-08-03T11:10:10.503Z,37.01
2022-08-03T11:11:07.228Z,41.52
2022-08-03T11:12:07.218Z,36.37
2022-08-03T11:13:07.214Z,37.66
2022-08-03T11:14:07.229Z,34.76
2022-08-03T11:15:07.300Z,37.01
2022-08-03T11:16:10.927Z,38.62
2022-08-03T11:17:07.181Z,45.39
2022-08-03T11:18:07.235Z,35.08
2022-08-03T11:19:07.122Z,34.76
2022-08-03T11:20:07.153Z,43.78
2022-08-03T11:21:07.124Z,32.50
2022-08-03T11:22:07.102Z,33.79
2022-08-03T11:23:07.151Z,33.47
2022-08-03T11:24:07.254Z,39.91
2022-08-03T11:25:07.086Z,36.69
2022-08-03T11:26:07.072Z,40.56
2022-08-03T11:27:07.058Z,36.04
2022-08-03T11:28:07.073Z,39.59
2022-08-03T11:29:07.066Z,36.04
2022-08-03T11:30:07.037Z,36.37
2022-08-03T11:31:07.005Z,39.27
2022-08-03T11:32:07.028Z,36.04
2022-08-03T11:33:07.000Z,36.37
2022-08-03T11:34:07.009Z,37.01
2022-08-03T11:35:07.029Z,37.66
2022-08-03T11:36:06.985Z,36.04
2022-08-03T11:37:06.980Z,40.23
2022-08-03T11:38:07.038Z,37.66
2022-08-03T11:39:06.927Z,35.72
2022-08-03T11:40:06.943Z,43.46
2022-08-03T11:41:06.953Z,42.17
2022-08-03T11:42:06.934Z,46.68
2022-08-03T11:43:06.915Z,38.30
2022-08-03T11:44:06.901Z,34.76
2022-08-03T11:45:06.888Z,38.62
2022-08-03T11:46:06.898Z,35.08
2022-08-03T11:47:06.852Z,36.69
2022-08-03T11:48:06.872Z,37.01
2022-08-03T11:49:10.368Z,35.08
2022-08-03T11:50:06.870Z,39.27
2022-08-03T11:51:06.831Z,39.91
2022-08-03T11:52:06.809Z,38.30
2022-08-03T11:53:06.821Z,41.85
2022-08-03T11:54:06.794Z,44.75
2022-08-03T11:55:06.775Z,37.98
2022-08-03T11:56:06.791Z,37.33
2022-08-03T11:57:06.782Z,35.08
2022-08-03T11:59:16.561Z,39.59
2022-08-03T11:59:24.281Z,36.04
2022-08-03T12:00:06.744Z,35.40
2022-08-03T12:01:06.738Z,36.37
2022-08-03T12:02:06.750Z,37.98
2022-08-03T12:03:06.872Z,36.37
2022-08-03T12:04:06.746Z,37.98
2022-08-03T12:05:06.679Z,36.69
2022-08-03T12:06:06.689Z,37.98
2022-08-03T12:07:06.693Z,36.37
2022-08-03T12:08:07.188Z,38.30
2022-08-03T12:09:06.669Z,36.69
2022-08-03T12:10:06.661Z,37.98
2022-08-03T12:11:06.771Z,38.30
2022-08-03T12:12:06.644Z,39.59
2022-08-03T12:14:44.423Z,37.33
2022-08-03T12:14:54.206Z,31.53
2022-08-03T12:15:06.610Z,37.66
2022-08-03T12:16:06.652Z,35.40
2022-08-03T12:17:06.583Z,37.01
2022-08-03T12:18:06.581Z,31.86
2022-08-03T12:19:06.586Z,37.01
2022-08-03T12:20:06.622Z,35.72
2022-08-03T12:21:06.527Z,35.72
2022-08-03T12:22:06.525Z,33.47
2022-08-03T12:23:06.520Z,36.37
2022-08-03T12:24:06.507Z,32.82
2022-08-03T12:25:06.497Z,35.40
2022-08-03T12:26:06.507Z,37.98
2022-08-03T12:27:06.494Z,37.66
2022-08-03T12:28:06.488Z,41.52
2022-08-03T12:29:06.494Z,38.30
2022-08-03T12:30:06.503Z,37.33
2022-08-03T12:31:06.447Z,38.95
2022-08-03T12:32:06.454Z,37.33
2022-08-03T12:33:06.417Z,37.98
2022-08-03T12:34:06.412Z,36.69
2022-08-03T12:35:06.450Z,31.86
2022-08-03T12:36:06.393Z,31.21
2022-08-03T12:37:22.234Z,39.59
2022-08-03T12:38:06.379Z,35.08
2022-08-03T12:39:06.371Z,37.01
2022-08-03T12:40:09.966Z,35.40
2022-08-03T12:41:06.337Z,33.14
2022-08-03T12:42:06.338Z,39.27
2022-08-03T12:43:06.330Z,36.69
2022-08-03T12:44:06.313Z,35.08
2022-08-03T12:45:06.329Z,35.72
2022-08-03T12:46:06.294Z,37.98
2022-08-03T12:47:06.301Z,35.72
2022-08-03T12:48:06.268Z,31.21
2022-08-03T12:49:06.304Z,38.62
2022-08-03T12:50:06.272Z,37.33
2022-08-03T12:51:06.275Z,37.98
2022-08-03T12:52:07.717Z,37.33